GCM weather

Owen Roberts International Airport
Georgetown, Cayman Islands

Public forecast

Using degrees Celsius for public forecast. Weather courtesy of forecast.io.

Current aviation weather report (METAR) for Owen Roberts International Airport

Report is more than 2 hours old.

Retrieved 2020/01/29 03:00 UTC (5 hours ago):

MWCR 290300Z 00000KT 9999 FEW025 24/21 Q1014

Aviation forecast (TAF) for Owen Roberts International Airport

Forecast is more than 6 hours old.

Retrieved 2020-01-29 00:50 UTC (7 hours ago):

TAF MWCR 290300Z 2900/2924 CNL